Hoods Crossroads, Alabama
Current Conditions -  °F | °C
As of 11:55 PM on Wednesday 26 Nov 2014 (Local Time) from KGAD Reporting Station
Broken Clouds Broken Clouds  
Wind Chill: 40°   Ceiling: 6500
Heat Index: 45°   Visibility: 10mi
Dew Point: 27°   Wind: 8mph
Humidity: 49%   Direction: 290°WNW
Pressure: 30.14"   Gusts: NA
Location:  33.8959°N, 86.4894°W
Report Text: KGAD 270555Z 29007KT 10SM BKN065 07/M03 A3014 RMK AO1 52027
Loading
Personal Weather Stations






























Interactive Weather Map New forecast layout! Learn more

10-Day Weather Forecast

Advertisements
Track Severe Weather on mobile